createdAt,value
2023-02-03T00:00:01.059Z,1.6
2023-02-03T00:02:00.986Z,1.6
2023-02-03T00:03:00.982Z,1.7
2023-02-03T00:04:00.992Z,1.5
2023-02-03T00:09:01.124Z,1.5
2023-02-03T00:11:00.948Z,1.6
2023-02-03T00:13:01.029Z,1.5
2023-02-03T00:15:01.056Z,1.5
2023-02-03T00:21:00.935Z,1.6
2023-02-03T00:24:00.918Z,1.5
2023-02-03T00:25:01.020Z,1.6
2023-02-03T00:28:01.084Z,1.4
2023-02-03T00:30:01.119Z,1.6
2023-02-03T00:32:00.997Z,1.5
2023-02-03T00:36:00.960Z,1.4
2023-02-03T00:37:00.934Z,1.5
2023-02-03T00:39:00.950Z,1.6
2023-02-03T00:41:00.948Z,1.5
2023-02-03T00:43:00.979Z,1.6
2023-02-03T00:45:01.020Z,1.5
2023-02-03T00:47:01.013Z,1.6
2023-02-03T00:57:00.988Z,1.8
2023-02-03T00:58:00.968Z,1.7
2023-02-03T01:05:00.992Z,1.8
2023-02-03T01:07:01.020Z,1.7
2023-02-03T01:10:01.037Z,1.8
2023-02-03T01:12:00.919Z,2
2023-02-03T01:13:00.983Z,1.9
2023-02-03T01:15:01.042Z,2
2023-02-03T01:20:01.019Z,2.1
2023-02-03T01:23:00.960Z,2.2
2023-02-03T01:25:01.011Z,2.2
2023-02-03T01:30:01.095Z,2.3
2023-02-03T01:32:01.130Z,2.3
2023-02-03T01:35:00.935Z,2.4
2023-02-03T01:39:00.931Z,2.5
2023-02-03T01:40:01.000Z,2.4
2023-02-03T01:43:00.944Z,2.6
2023-02-03T01:44:00.957Z,2.5
2023-02-03T01:45:01.063Z,2.6
2023-02-03T01:46:01.068Z,2.5
2023-02-03T01:48:00.917Z,2.6
2023-02-03T01:51:00.955Z,2.8
2023-02-03T01:53:00.936Z,2.7
2023-02-03T01:57:00.956Z,2.8
2023-02-03T02:01:00.963Z,2.8
2023-02-03T02:02:00.935Z,2.7
2023-02-03T02:03:00.921Z,2.8
2023-02-03T02:07:01.069Z,2.9
2023-02-03T02:09:00.979Z,2.9
2023-02-03T02:12:00.935Z,3
2023-02-03T02:13:00.973Z,2.9
2023-02-03T02:15:01.086Z,3
2023-02-03T02:22:00.921Z,3.1
2023-02-03T02:23:00.961Z,3
2023-02-03T02:24:00.920Z,3.1
2023-02-03T02:26:00.994Z,3
2023-02-03T02:31:01.013Z,3.2
2023-02-03T02:35:00.944Z,3.2
2023-02-03T02:37:00.963Z,3.1
2023-02-03T02:40:00.965Z,3.1
2023-02-03T02:41:01.002Z,3.3
2023-02-03T02:44:00.947Z,3.3
2023-02-03T02:45:00.926Z,3.2
2023-02-03T02:49:00.939Z,3.3
2023-02-03T02:51:00.936Z,3.4
2023-02-03T02:55:00.952Z,3.4
2023-02-03T02:56:00.924Z,3.3
2023-02-03T02:59:00.949Z,3.5
2023-02-03T03:00:01.102Z,3.4
2023-02-03T03:02:00.953Z,3.3
2023-02-03T03:05:00.989Z,3.3
2023-02-03T03:09:00.933Z,3.5
2023-02-03T03:11:00.935Z,3.4
2023-02-03T03:12:00.972Z,3.3
2023-02-03T03:14:01.057Z,3.4
2023-02-03T03:15:01.037Z,3.5
2023-02-03T03:21:01.020Z,3.5
2023-02-03T03:25:00.948Z,3.4
2023-02-03T03:27:00.999Z,3.5
2023-02-03T03:28:00.991Z,3.6
2023-02-03T03:29:00.975Z,3.5
2023-02-03T03:31:01.017Z,3.6
2023-02-03T03:33:00.940Z,3.6
2023-02-03T03:38:00.977Z,3.7
2023-02-03T03:40:00.991Z,3.7
2023-02-03T03:42:00.985Z,3.7
2023-02-03T03:48:00.981Z,3.8
2023-02-03T03:49:00.949Z,3.7
2023-02-03T03:51:00.980Z,3.7
2023-02-03T03:53:00.959Z,3.6
2023-02-03T03:54:00.950Z,3.7
2023-02-03T03:55:00.954Z,3.8
2023-02-03T03:56:01.016Z,3.7
2023-02-03T03:58:00.951Z,3.8
2023-02-03T03:59:00.964Z,3.7
2023-02-03T04:01:01.048Z,3.8
2023-02-03T04:06:00.994Z,3.9
2023-02-03T04:09:00.987Z,3.7
2023-02-03T04:12:00.920Z,3.9
2023-02-03T04:13:00.977Z,3.8
2023-02-03T04:14:00.935Z,3.9
2023-02-03T04:15:01.011Z,4
2023-02-03T04:19:00.993Z,3.8
2023-02-03T04:21:01.010Z,4
2023-02-03T04:23:01.030Z,3.9
2023-02-03T04:25:00.980Z,4
2023-02-03T04:29:00.939Z,3.9
2023-02-03T04:31:01.104Z,4.1
2023-02-03T04:33:01.009Z,4
2023-02-03T04:35:00.971Z,4.1
2023-02-03T04:36:00.980Z,3.9
2023-02-03T04:37:00.985Z,4.1
2023-02-03T04:38:00.990Z,4
2023-02-03T04:40:00.950Z,4
2023-02-03T04:41:00.964Z,4.1
2023-02-03T04:42:00.996Z,4.2
2023-02-03T04:44:01.029Z,4
2023-02-03T04:45:01.103Z,4.1
2023-02-03T04:47:00.976Z,4.1
2023-02-03T04:48:00.971Z,4
2023-02-03T04:49:00.984Z,4.1
2023-02-03T04:53:00.968Z,4
2023-02-03T04:55:01.002Z,4.2
2023-02-03T04:57:01.011Z,4.2
2023-02-03T05:00:01.017Z,4.1
2023-02-03T05:02:00.936Z,4.2
2023-02-03T05:03:01.039Z,4.1
2023-02-03T05:05:00.954Z,4.2
2023-02-03T05:06:00.995Z,4.1
2023-02-03T05:08:00.945Z,4.2
2023-02-03T05:12:00.986Z,4.1
2023-02-03T05:14:00.936Z,4.2
2023-02-03T05:15:00.990Z,4.1
2023-02-03T05:17:00.956Z,4.1
2023-02-03T05:18:00.941Z,4.2
2023-02-03T05:20:00.974Z,4.3
2023-02-03T05:21:00.963Z,4.2
2023-02-03T05:22:00.935Z,4.1
2023-02-03T05:23:00.968Z,4.2
2023-02-03T05:26:00.915Z,4.3
2023-02-03T05:27:00.993Z,4.2
2023-02-03T05:30:01.086Z,4.2
2023-02-03T05:32:01.083Z,4.3
2023-02-03T05:35:00.951Z,4.2
2023-02-03T05:36:01.035Z,4.3
2023-02-03T05:38:00.915Z,4.2
2023-02-03T05:39:00.921Z,4.3
2023-02-03T05:40:00.925Z,4.2
2023-02-03T05:42:00.968Z,4.4
2023-02-03T05:44:00.916Z,4.3
2023-02-03T05:45:01.062Z,4.4
2023-02-03T05:47:00.948Z,4.3
2023-02-03T05:49:00.960Z,4.4
2023-02-03T05:51:00.982Z,4.3
2023-02-03T05:55:00.931Z,4.3
2023-02-03T06:02:00.926Z,4.2
2023-02-03T06:04:01.154Z,4.3
2023-02-03T06:05:00.987Z,4.4
2023-02-03T06:08:00.983Z,4.4
2023-02-03T06:10:00.916Z,4.3
2023-02-03T06:12:01.035Z,4.2
2023-02-03T06:14:00.934Z,4.3
2023-02-03T06:15:00.971Z,4.4
2023-02-03T06:18:00.976Z,4.2
2023-02-03T06:20:00.926Z,4.2
2023-02-03T06:21:00.947Z,4.3
2023-02-03T06:23:00.928Z,4.4
2023-02-03T06:25:01.027Z,4.4
2023-02-03T06:34:00.908Z,4.3
2023-02-03T06:35:00.931Z,4.4
2023-02-03T06:41:00.941Z,4.5
2023-02-03T06:45:01.036Z,4.4
2023-02-03T06:47:00.982Z,4.5
2023-02-03T06:48:00.973Z,4.4
2023-02-03T06:50:00.919Z,4.4
2023-02-03T06:52:00.931Z,4.5
2023-02-03T06:55:00.922Z,4.4
2023-02-03T06:57:01.009Z,4.4
2023-02-03T06:59:00.989Z,4.4
2023-02-03T07:01:01.005Z,4.6
2023-02-03T07:03:00.985Z,4.4
2023-02-03T07:06:00.914Z,4.4
2023-02-03T07:07:00.996Z,4.5
2023-02-03T07:09:01.929Z,4.6
2023-02-03T07:11:00.936Z,4.5
2023-02-03T07:12:00.936Z,4.4
2023-02-03T07:15:01.021Z,4.6
2023-02-03T07:18:00.948Z,4.4
2023-02-03T07:19:00.979Z,4.5
2023-02-03T07:25:00.962Z,4.6
2023-02-03T07:26:00.971Z,4.5
2023-02-03T07:28:00.986Z,4.4
2023-02-03T07:29:00.990Z,4.5
2023-02-03T07:30:01.190Z,4.6
2023-02-03T07:32:01.015Z,4.6
2023-02-03T07:33:00.989Z,4.7
2023-02-03T07:35:00.974Z,4.6
2023-02-03T07:37:01.046Z,4.6
2023-02-03T07:39:00.939Z,4.6
2023-02-03T07:41:00.934Z,4.6
2023-02-03T07:42:00.969Z,4.8
2023-02-03T07:43:00.989Z,4.7
2023-02-03T07:45:01.052Z,4.6
2023-02-03T07:47:01.034Z,4.8
2023-02-03T07:49:00.942Z,4.7
2023-02-03T07:51:00.954Z,4.8
2023-02-03T07:54:00.920Z,4.8
2023-02-03T07:57:00.952Z,4.7
2023-02-03T07:59:00.958Z,4.7
2023-02-03T08:01:00.991Z,4.8
2023-02-03T08:02:01.077Z,4.9
2023-02-03T08:03:00.991Z,4.8
2023-02-03T08:05:01.045Z,4.9
2023-02-03T08:08:00.996Z,4.9
2023-02-03T08:10:00.981Z,4.9
2023-02-03T08:11:00.956Z,4.8
2023-02-03T08:14:00.940Z,4.8
2023-02-03T08:15:01.069Z,4.9
2023-02-03T08:17:01.008Z,4.9
2023-02-03T08:23:01.044Z,4.8
2023-02-03T08:27:00.987Z,5
2023-02-03T08:28:01.031Z,4.9
2023-02-03T08:30:01.149Z,5.1
2023-02-03T08:32:00.975Z,5
2023-02-03T08:34:00.954Z,4.9
2023-02-03T08:35:01.033Z,5
2023-02-03T08:37:01.121Z,5
2023-02-03T08:39:00.985Z,5.1
2023-02-03T08:43:00.989Z,5.2
2023-02-03T08:46:01.016Z,5
2023-02-03T08:47:01.059Z,5.1
2023-02-03T08:49:00.971Z,5.1
2023-02-03T08:50:01.015Z,5.3
2023-02-03T08:51:01.042Z,5.1
2023-02-03T08:53:00.952Z,5.2
2023-02-03T08:59:00.945Z,5.4
2023-02-03T09:00:01.026Z,5.2
2023-02-03T09:01:01.083Z,5.3
2023-02-03T09:07:01.054Z,5.2
2023-02-03T09:10:01.003Z,5.2
2023-02-03T09:12:00.941Z,5.3
2023-02-03T09:13:01.050Z,5.4
2023-02-03T09:15:00.972Z,5.3
2023-02-03T09:17:01.037Z,5.4
2023-02-03T09:19:00.942Z,5.3
2023-02-03T09:20:01.067Z,5.4
2023-02-03T09:22:01.019Z,5.4
2023-02-03T09:24:00.937Z,5.3
2023-02-03T09:25:00.976Z,5.4
2023-02-03T09:27:01.048Z,5.5
2023-02-03T09:31:01.035Z,5.5
2023-02-03T09:33:01.030Z,5.3
2023-02-03T09:35:00.995Z,5.5
2023-02-03T09:37:01.037Z,5.3
2023-02-03T09:39:01.010Z,5.4
2023-02-03T09:40:00.944Z,5.5
2023-02-03T09:41:11.117Z,5.4
2023-02-03T09:45:01.093Z,5.3
2023-02-03T09:46:01.142Z,5.4
2023-02-03T09:49:00.969Z,5.5
2023-02-03T09:52:01.020Z,5.4
2023-02-03T09:54:00.960Z,5.4
2023-02-03T09:55:00.981Z,5.5
2023-02-03T10:04:00.904Z,5.3
2023-02-03T10:05:00.942Z,5.4
2023-02-03T10:07:00.948Z,5.3
2023-02-03T10:08:00.964Z,5.4
2023-02-03T10:10:00.955Z,5.4
2023-02-03T10:11:01.045Z,5.5
2023-02-03T10:14:00.920Z,5.4
2023-02-03T10:16:00.973Z,5.5
2023-02-03T10:18:00.906Z,5.6
2023-02-03T10:19:02.605Z,5.4
2023-02-03T10:22:00.966Z,5.5
2023-02-03T10:24:00.932Z,5.6
2023-02-03T10:27:00.939Z,5.6
2023-02-03T10:29:00.936Z,5.6
2023-02-03T10:30:01.313Z,5.5
2023-02-03T10:32:01.048Z,5.5
2023-02-03T10:34:00.930Z,5.4
2023-02-03T10:35:00.968Z,5.5
2023-02-03T10:37:00.974Z,5.5
2023-02-03T10:39:00.936Z,5.5
2023-02-03T10:40:00.938Z,5.6
2023-02-03T10:41:01.012Z,5.7
2023-02-03T10:43:00.957Z,5.6
2023-02-03T10:45:01.034Z,5.6
2023-02-03T10:48:00.932Z,5.5
2023-02-03T10:52:00.968Z,5.6
2023-02-03T10:54:00.982Z,5.5
2023-02-03T10:55:00.983Z,5.6
2023-02-03T10:57:00.985Z,5.6
2023-02-03T10:59:00.966Z,5.4
2023-02-03T11:00:01.157Z,5.5
2023-02-03T11:02:01.005Z,5.4
2023-02-03T11:05:00.942Z,5.5
2023-02-03T11:08:00.944Z,5.6
2023-02-03T11:09:01.019Z,5.5
2023-02-03T11:12:00.929Z,5.4
2023-02-03T11:13:00.963Z,5.5
2023-02-03T11:14:00.973Z,5.6
2023-02-03T11:16:01.187Z,5.5
2023-02-03T11:19:00.925Z,5.5
2023-02-03T11:20:00.940Z,5.6
2023-02-03T11:21:01.005Z,5.4
2023-02-03T11:24:00.983Z,5.5
2023-02-03T11:25:01.018Z,5.6
2023-02-03T11:28:01.062Z,5.4
2023-02-03T11:29:00.967Z,5.5
2023-02-03T11:31:01.040Z,5.4
2023-02-03T11:33:01.012Z,5.4
2023-02-03T11:37:00.937Z,5.4
2023-02-03T11:41:00.932Z,5.5
2023-02-03T11:48:00.946Z,5.4
2023-02-03T11:50:00.921Z,5.5
2023-02-03T11:51:00.939Z,5.4
2023-02-03T11:52:01.012Z,5.5
2023-02-03T11:54:00.969Z,5.5
2023-02-03T11:56:00.971Z,5.4
2023-02-03T11:58:00.981Z,5.4
2023-02-03T12:00:01.027Z,5.4
2023-02-03T12:02:00.974Z,5.5
2023-02-03T12:09:00.925Z,5.4
2023-02-03T12:12:00.918Z,5.5
2023-02-03T12:14:00.925Z,5.4
2023-02-03T12:15:00.991Z,5.5
2023-02-03T12:18:00.904Z,5.5
2023-02-03T12:19:00.921Z,5.4
2023-02-03T12:21:00.906Z,5.5
2023-02-03T12:30:01.018Z,5.3
2023-02-03T12:32:00.946Z,5.5
2023-02-03T12:33:00.919Z,5.4
2023-02-03T12:35:00.942Z,5.4
2023-02-03T12:37:00.957Z,5.3
2023-02-03T12:41:00.917Z,5.3
2023-02-03T12:43:00.963Z,5.5
2023-02-03T12:46:01.063Z,5.5
2023-02-03T12:48:00.929Z,5.4
2023-02-03T12:50:00.973Z,5.5
2023-02-03T12:53:00.930Z,5.4
2023-02-03T12:56:00.990Z,5.6
2023-02-03T12:57:00.935Z,5.5
2023-02-03T12:59:00.944Z,5.7
2023-02-03T13:00:00.948Z,5.5
2023-02-03T13:03:00.919Z,5.5
2023-02-03T13:04:00.940Z,5.7
2023-02-03T13:05:00.966Z,5.6
2023-02-03T13:07:01.043Z,5.7
2023-02-03T13:09:00.940Z,5.7
2023-02-03T13:10:00.983Z,5.6
2023-02-03T13:12:00.933Z,5.7
2023-02-03T13:13:00.948Z,5.6
2023-02-03T13:14:00.942Z,5.5
2023-02-03T13:15:01.082Z,5.6
2023-02-03T13:16:01.095Z,5.4
2023-02-03T13:18:00.999Z,5.5
2023-02-03T13:21:00.959Z,5.6
2023-02-03T13:23:00.937Z,5.4
2023-02-03T13:24:00.921Z,5.6
2023-02-03T13:26:00.942Z,5.5
2023-02-03T13:27:00.986Z,5.6
2023-02-03T13:31:00.969Z,5.7
2023-02-03T13:32:01.011Z,5.6
2023-02-03T13:36:01.043Z,5.7
2023-02-03T13:38:00.946Z,5.7
2023-02-03T13:39:00.971Z,5.6
2023-02-03T13:41:00.960Z,5.6
2023-02-03T13:43:00.942Z,5.7
2023-02-03T13:45:01.001Z,5.7
2023-02-03T13:47:01.062Z,5.7
2023-02-03T13:50:00.942Z,5.6
2023-02-03T13:52:00.928Z,5.5
2023-02-03T13:55:00.950Z,5.4
2023-02-03T13:59:00.931Z,5.5
2023-02-03T14:00:00.969Z,5.6
2023-02-03T14:02:00.969Z,5.5
2023-02-03T14:04:01.095Z,5.6
2023-02-03T14:06:00.948Z,5.5
2023-02-03T14:08:00.972Z,5.6
2023-02-03T14:12:00.939Z,5.7
2023-02-03T14:14:00.983Z,5.5
2023-02-03T14:15:01.006Z,5.8
2023-02-03T14:18:00.969Z,5.8
2023-02-03T14:20:00.940Z,5.9
2023-02-03T14:24:00.951Z,6
2023-02-03T14:25:00.963Z,5.9
2023-02-03T14:26:01.006Z,6
2023-02-03T14:28:01.037Z,6
2023-02-03T14:29:00.991Z,5.9
2023-02-03T14:30:01.032Z,6
2023-02-03T14:32:01.027Z,6
2023-02-03T14:33:00.960Z,5.9
2023-02-03T14:35:00.944Z,5.8
2023-02-03T14:36:00.952Z,6
2023-02-03T14:38:01.022Z,6.1
2023-02-03T14:42:00.966Z,6.1
2023-02-03T14:49:01.000Z,5.9
2023-02-03T14:52:00.977Z,5.8
2023-02-03T14:54:00.946Z,5.9
2023-02-03T14:55:01.011Z,5.8
2023-02-03T14:58:01.000Z,5.9
2023-02-03T15:02:01.053Z,5.8
2023-02-03T15:05:01.020Z,5.7
2023-02-03T15:07:00.968Z,5.7
2023-02-03T15:09:00.956Z,5.6
2023-02-03T15:10:00.942Z,5.8
2023-02-03T15:11:00.988Z,5.6
2023-02-03T15:14:00.938Z,5.6
2023-02-03T15:15:01.010Z,5.7
2023-02-03T15:16:01.105Z,5.6
2023-02-03T15:21:00.992Z,5.5
2023-02-03T15:25:00.967Z,5.7
2023-02-03T15:26:00.987Z,5.5
2023-02-03T15:29:00.941Z,5.4
2023-02-03T15:30:01.013Z,5.5
2023-02-03T15:32:00.969Z,5.4
2023-02-03T15:33:01.005Z,5.5
2023-02-03T15:36:00.915Z,5.6
2023-02-03T15:37:00.965Z,5.4
2023-02-03T15:38:00.973Z,5.5
2023-02-03T15:40:00.963Z,5.4
2023-02-03T15:42:00.914Z,5.4
2023-02-03T15:43:00.931Z,5.3
2023-02-03T15:45:01.038Z,5.4
2023-02-03T15:47:01.134Z,5.4
2023-02-03T15:49:00.928Z,5.4
2023-02-03T15:50:00.929Z,5.3
2023-02-03T15:54:00.915Z,5.2
2023-02-03T15:58:00.964Z,5.3
2023-02-03T16:01:00.935Z,5.2
2023-02-03T16:02:01.008Z,5.3
2023-02-03T16:08:00.959Z,5.2
2023-02-03T16:10:00.926Z,5.3
2023-02-03T16:12:00.919Z,5.2
2023-02-03T16:13:00.925Z,5.3
2023-02-03T16:17:05.167Z,5.2
2023-02-03T16:19:00.938Z,5.3
2023-02-03T16:22:00.924Z,5.1
2023-02-03T16:23:00.915Z,5.3
2023-02-03T16:26:00.940Z,5.1
2023-02-03T16:29:00.970Z,5.2
2023-02-03T16:31:01.092Z,5.1
2023-02-03T16:32:00.967Z,5.2
2023-02-03T16:33:00.925Z,5.3
2023-02-03T16:34:00.990Z,5.2
2023-02-03T16:36:00.926Z,5.2
2023-02-03T16:37:00.988Z,5.1
2023-02-03T16:39:00.928Z,5.2
2023-02-03T16:41:00.923Z,5.1
2023-02-03T16:44:00.928Z,5.3
2023-02-03T16:46:00.998Z,5.2
2023-02-03T16:47:01.022Z,5.3
2023-02-03T16:48:01.106Z,5.1
2023-02-03T16:51:01.000Z,5.3
2023-02-03T16:53:00.964Z,5.3
2023-02-03T16:54:00.996Z,5.2
2023-02-03T16:55:00.984Z,5.3
2023-02-03T16:57:01.079Z,5.1
2023-02-03T16:59:00.995Z,5.2
2023-02-03T17:00:01.046Z,5.1
2023-02-03T17:02:01.021Z,5.3
2023-02-03T17:03:00.973Z,5.2
2023-02-03T17:05:00.932Z,5.3
2023-02-03T17:06:00.993Z,5.2
2023-02-03T17:09:00.941Z,5.3
2023-02-03T17:14:00.973Z,5.3
2023-02-03T17:15:01.097Z,5.2
2023-02-03T17:18:00.940Z,5.3
2023-02-03T17:20:00.942Z,5.2
2023-02-03T17:21:01.020Z,5.3
2023-02-03T17:24:00.921Z,5.1
2023-02-03T17:25:00.958Z,5.2
2023-02-03T17:26:00.996Z,5.3
2023-02-03T17:27:01.009Z,5.1
2023-02-03T17:31:01.105Z,5.3
2023-02-03T17:32:01.186Z,5.2
2023-02-03T17:33:00.992Z,5.3
2023-02-03T17:35:00.925Z,5.1
2023-02-03T17:36:00.944Z,5.3
2023-02-03T17:37:00.982Z,5.2
2023-02-03T17:54:01.007Z,5.3
2023-02-03T17:56:00.944Z,5.2
2023-02-03T17:57:01.007Z,5.3
2023-02-03T18:00:01.020Z,5.1
2023-02-03T18:02:01.020Z,5.2
2023-02-03T18:03:00.969Z,5.3
2023-02-03T18:10:00.949Z,5.2
2023-02-03T18:12:00.914Z,5.3
2023-02-03T18:13:00.912Z,5.2
2023-02-03T18:14:00.904Z,5.3
2023-02-03T18:15:00.964Z,5.2
2023-02-03T18:17:01.054Z,5.2
2023-02-03T18:20:01.107Z,5.1
2023-02-03T18:23:00.939Z,5.2
2023-02-03T18:24:00.959Z,5.1
2023-02-03T18:26:00.896Z,5.1
2023-02-03T18:28:00.954Z,5.2
2023-02-03T18:31:00.986Z,5.3
2023-02-03T18:33:00.901Z,5.1
2023-02-03T18:34:00.894Z,5
2023-02-03T18:37:00.985Z,5.1
2023-02-03T18:42:00.945Z,5
2023-02-03T18:43:00.906Z,5.1
2023-02-03T18:45:00.939Z,5.1
2023-02-03T18:49:00.925Z,5
2023-02-03T18:54:00.962Z,5.1
2023-02-03T18:56:00.937Z,5
2023-02-03T18:58:00.944Z,5.1
2023-02-03T19:03:00.916Z,5.1
2023-02-03T19:04:00.944Z,5
2023-02-03T19:07:00.957Z,4.8
2023-02-03T19:08:00.965Z,5
2023-02-03T19:09:00.947Z,4.9
2023-02-03T19:12:00.931Z,5.1
2023-02-03T19:14:00.949Z,5
2023-02-03T19:15:00.985Z,4.9
2023-02-03T19:18:00.942Z,4.9
2023-02-03T19:20:00.982Z,5
2023-02-03T19:22:00.954Z,4.9
2023-02-03T19:25:00.939Z,5
2023-02-03T19:27:00.961Z,4.9
2023-02-03T19:33:00.959Z,4.8
2023-02-03T19:34:01.015Z,4.9
2023-02-03T19:36:00.945Z,4.8
2023-02-03T19:37:00.962Z,4.9
2023-02-03T19:43:00.965Z,5
2023-02-03T19:46:01.005Z,5
2023-02-03T19:47:00.964Z,4.9
2023-02-03T19:49:00.917Z,4.8
2023-02-03T19:50:00.943Z,4.9
2023-02-03T19:53:00.956Z,4.8
2023-02-03T19:54:00.998Z,5
2023-02-03T19:56:00.950Z,4.9
2023-02-03T20:02:09.491Z,4.8
2023-02-03T20:03:01.957Z,4.9
2023-02-03T20:06:01.308Z,4.8
2023-02-03T20:09:00.951Z,4.8
2023-02-03T20:11:01.051Z,4.7
2023-02-03T20:12:01.091Z,4.9
2023-02-03T20:14:00.920Z,4.7
2023-02-03T20:15:00.999Z,4.9
2023-02-03T20:19:00.984Z,4.8
2023-02-03T20:21:00.915Z,4.8
2023-02-03T20:23:00.929Z,4.8
2023-02-03T20:24:01.925Z,4.7
2023-02-03T20:25:00.986Z,5
2023-02-03T20:27:00.973Z,4.8
2023-02-03T20:30:01.030Z,4.9
2023-02-03T20:32:00.916Z,4.8
2023-02-03T20:33:00.957Z,5
2023-02-03T20:34:00.940Z,4.9
2023-02-03T20:36:00.932Z,4.9
2023-02-03T20:38:00.911Z,4.8
2023-02-03T20:41:00.945Z,4.9
2023-02-03T20:42:00.988Z,4.7
2023-02-03T20:44:01.001Z,4.7
2023-02-03T20:45:01.020Z,4.8
2023-02-03T20:47:01.104Z,4.6
2023-02-03T20:50:00.978Z,4.7
2023-02-03T20:53:00.935Z,4.6
2023-02-03T20:58:00.949Z,4.8
2023-02-03T20:59:01.034Z,4.7
2023-02-03T21:01:01.028Z,4.7
2023-02-03T21:03:00.977Z,4.6
2023-02-03T21:05:00.955Z,4.6
2023-02-03T21:08:00.980Z,4.6
2023-02-03T21:12:00.997Z,4.5
2023-02-03T21:15:01.119Z,4.6
2023-02-03T21:18:00.939Z,4.6
2023-02-03T21:19:00.936Z,4.5
2023-02-03T21:24:00.927Z,4.4
2023-02-03T21:26:00.960Z,4.5
2023-02-03T21:27:01.002Z,4.4
2023-02-03T21:29:01.015Z,4.4
2023-02-03T21:36:00.971Z,4.3
2023-02-03T21:37:00.934Z,4.5
2023-02-03T21:39:00.920Z,4.4
2023-02-03T21:42:00.943Z,4.3
2023-02-03T21:43:00.942Z,4.4
2023-02-03T21:46:01.052Z,4.3
2023-02-03T21:48:01.045Z,4.4
2023-02-03T21:50:00.981Z,4.2
2023-02-03T21:55:00.945Z,4.1
2023-02-03T21:57:00.948Z,4.1
2023-02-03T22:00:01.007Z,4
2023-02-03T22:02:00.982Z,4
2023-02-03T22:05:00.993Z,4.1
2023-02-03T22:06:01.002Z,4
2023-02-03T22:08:00.939Z,3.9
2023-02-03T22:09:00.938Z,4
2023-02-03T22:10:00.962Z,3.9
2023-02-03T22:11:01.006Z,4
2023-02-03T22:13:00.935Z,4.1
2023-02-03T22:15:01.070Z,4
2023-02-03T22:18:00.929Z,3.8
2023-02-03T22:19:00.928Z,4
2023-02-03T22:22:01.044Z,3.9
2023-02-03T22:24:00.957Z,4.1
2023-02-03T22:25:00.961Z,3.9
2023-02-03T22:27:00.984Z,3.9
2023-02-03T22:28:01.038Z,4
2023-02-03T22:31:01.091Z,3.9
2023-02-03T22:36:00.944Z,4
2023-02-03T22:39:00.991Z,3.9
2023-02-03T22:42:00.924Z,3.8
2023-02-03T22:44:00.935Z,3.9
2023-02-03T22:45:00.994Z,3.7
2023-02-03T22:47:00.998Z,3.7
2023-02-03T22:49:00.950Z,3.7
2023-02-03T22:50:01.033Z,3.8
2023-02-03T22:52:00.978Z,3.7
2023-02-03T22:54:01.013Z,3.8
2023-02-03T22:58:01.007Z,3.6
2023-02-03T22:59:00.945Z,3.8
2023-02-03T23:00:01.149Z,3.6
2023-02-03T23:02:00.947Z,3.7
2023-02-03T23:03:00.969Z,3.6
2023-02-03T23:05:01.001Z,3.5
2023-02-03T23:08:00.928Z,3.5
2023-02-03T23:10:00.967Z,3.6
2023-02-03T23:13:00.999Z,3.4
2023-02-03T23:15:00.985Z,3.5
2023-02-03T23:17:01.022Z,3.5
2023-02-03T23:21:00.955Z,3.6
2023-02-03T23:22:01.015Z,3.4
2023-02-03T23:24:00.976Z,3.4
2023-02-03T23:26:00.963Z,3.6
2023-02-03T23:27:00.973Z,3.4
2023-02-03T23:31:01.132Z,3.3
2023-02-03T23:33:00.974Z,3.4
2023-02-03T23:35:00.968Z,3.3
2023-02-03T23:37:00.973Z,3.2
2023-02-03T23:39:00.999Z,3.1
2023-02-03T23:41:01.036Z,3.1
2023-02-03T23:46:00.977Z,3.1
2023-02-03T23:47:00.986Z,3.3
2023-02-03T23:50:00.932Z,3.1
2023-02-03T23:51:00.948Z,3.2
2023-02-03T23:52:01.015Z,3.1
2023-02-03T23:55:00.937Z,3
2023-02-03T23:56:01.025Z,3.1
2023-02-03T23:57:00.999Z,3
